sensor_id;sensor_type;location;lat;lon;timestamp;P1;durP1;ratioP1;P2;durP2;ratioP2
39176;SDS011;24904;52.208;21.192;2024-01-25T00:04:29;12.70;;;3.00;;
39176;SDS011;24904;52.208;21.192;2024-01-25T00:09:34;13.70;;;3.20;;
39176;SDS011;24904;52.208;21.192;2024-01-25T00:14:39;14.30;;;3.30;;
39176;SDS011;24904;52.208;21.192;2024-01-25T00:19:44;8.60;;;2.80;;
39176;SDS011;24904;52.208;21.192;2024-01-25T00:24:50;11.40;;;2.50;;
39176;SDS011;24904;52.208;21.192;2024-01-25T00:29:55;6.30;;;2.20;;
39176;SDS011;24904;52.208;21.192;2024-01-25T00:35:00;9.40;;;2.80;;
39176;SDS011;24904;52.208;21.192;2024-01-25T00:40:08;6.00;;;2.20;;
39176;SDS011;24904;52.208;21.192;2024-01-25T00:45:15;5.10;;;2.00;;
39176;SDS011;24904;52.208;21.192;2024-01-25T00:50:21;6.40;;;1.70;;
39176;SDS011;24904;52.208;21.192;2024-01-25T00:55:28;6.70;;;2.00;;
39176;SDS011;24904;52.208;21.192;2024-01-25T01:00:34;8.70;;;1.90;;
39176;SDS011;24904;52.208;21.192;2024-01-25T01:05:40;7.80;;;3.00;;
39176;SDS011;24904;52.208;21.192;2024-01-25T01:10:46;9.00;;;2.40;;
39176;SDS011;24904;52.208;21.192;2024-01-25T01:15:51;9.10;;;1.80;;
39176;SDS011;24904;52.208;21.192;2024-01-25T01:20:56;9.30;;;2.60;;
39176;SDS011;24904;52.208;21.192;2024-01-25T01:26:01;9.70;;;2.50;;
39176;SDS011;24904;52.208;21.192;2024-01-25T01:31:07;11.00;;;2.30;;
39176;SDS011;24904;52.208;21.192;2024-01-25T01:36:12;10.30;;;2.80;;
39176;SDS011;24904;52.208;21.192;2024-01-25T01:41:17;8.50;;;2.30;;
39176;SDS011;24904;52.208;21.192;2024-01-25T01:46:27;12.60;;;2.80;;
39176;SDS011;24904;52.208;21.192;2024-01-25T01:51:36;12.50;;;2.50;;
39176;SDS011;24904;52.208;21.192;2024-01-25T01:56:41;16.80;;;3.70;;
39176;SDS011;24904;52.208;21.192;2024-01-25T02:01:47;15.90;;;3.10;;
39176;SDS011;24904;52.208;21.192;2024-01-25T02:06:52;10.90;;;2.80;;
39176;SDS011;24904;52.208;21.192;2024-01-25T02:12:01;10.00;;;2.80;;
39176;SDS011;24904;52.208;21.192;2024-01-25T02:17:07;15.00;;;3.10;;
39176;SDS011;24904;52.208;21.192;2024-01-25T02:27:22;8.80;;;2.70;;
39176;SDS011;24904;52.208;21.192;2024-01-25T02:32:27;16.10;;;3.20;;
39176;SDS011;24904;52.208;21.192;2024-01-25T02:37:32;13.00;;;2.50;;
39176;SDS011;24904;52.208;21.192;2024-01-25T02:42:37;14.30;;;3.10;;
39176;SDS011;24904;52.208;21.192;2024-01-25T02:47:42;13.80;;;2.50;;
39176;SDS011;24904;52.208;21.192;2024-01-25T02:52:47;13.20;;;2.80;;
39176;SDS011;24904;52.208;21.192;2024-01-25T02:57:52;14.00;;;3.10;;
39176;SDS011;24904;52.208;21.192;2024-01-25T03:02:58;13.20;;;2.80;;
39176;SDS011;24904;52.208;21.192;2024-01-25T03:08:03;18.00;;;3.10;;
39176;SDS011;24904;52.208;21.192;2024-01-25T03:13:09;15.90;;;3.00;;
39176;SDS011;24904;52.208;21.192;2024-01-25T03:18:14;15.20;;;3.10;;
39176;SDS011;24904;52.208;21.192;2024-01-25T03:23:19;14.70;;;2.90;;
39176;SDS011;24904;52.208;21.192;2024-01-25T03:28:24;17.90;;;3.40;;
39176;SDS011;24904;52.208;21.192;2024-01-25T03:33:29;15.50;;;3.50;;
39176;SDS011;24904;52.208;21.192;2024-01-25T03:38:34;16.20;;;2.70;;
39176;SDS011;24904;52.208;21.192;2024-01-25T03:43:39;13.80;;;3.60;;
39176;SDS011;24904;52.208;21.192;2024-01-25T03:48:44;21.30;;;3.90;;
39176;SDS011;24904;52.208;21.192;2024-01-25T03:53:49;9.40;;;3.00;;
39176;SDS011;24904;52.208;21.192;2024-01-25T03:58:57;18.60;;;2.80;;
39176;SDS011;24904;52.208;21.192;2024-01-25T04:04:02;16.80;;;3.20;;
39176;SDS011;24904;52.208;21.192;2024-01-25T04:09:07;15.90;;;2.90;;
39176;SDS011;24904;52.208;21.192;2024-01-25T04:14:12;14.10;;;3.80;;
39176;SDS011;24904;52.208;21.192;2024-01-25T04:19:18;13.60;;;2.70;;
39176;SDS011;24904;52.208;21.192;2024-01-25T04:24:23;12.20;;;3.10;;
39176;SDS011;24904;52.208;21.192;2024-01-25T04:29:28;13.30;;;3.40;;
39176;SDS011;24904;52.208;21.192;2024-01-25T04:34:33;16.20;;;3.30;;
39176;SDS011;24904;52.208;21.192;2024-01-25T04:39:38;18.60;;;4.00;;
39176;SDS011;24904;52.208;21.192;2024-01-25T04:44:43;12.30;;;3.40;;
39176;SDS011;24904;52.208;21.192;2024-01-25T04:49:48;17.30;;;3.70;;
39176;SDS011;24904;52.208;21.192;2024-01-25T04:54:53;16.90;;;3.10;;
39176;SDS011;24904;52.208;21.192;2024-01-25T04:59:59;26.80;;;6.40;;
39176;SDS011;24904;52.208;21.192;2024-01-25T05:05:04;18.60;;;4.60;;
39176;SDS011;24904;52.208;21.192;2024-01-25T05:10:09;13.60;;;4.70;;
39176;SDS011;24904;52.208;21.192;2024-01-25T05:15:15;17.30;;;4.60;;
39176;SDS011;24904;52.208;21.192;2024-01-25T05:20:20;13.40;;;4.20;;
39176;SDS011;24904;52.208;21.192;2024-01-25T05:25:25;17.00;;;3.20;;
39176;SDS011;24904;52.208;21.192;2024-01-25T05:30:30;16.60;;;3.80;;
39176;SDS011;24904;52.208;21.192;2024-01-25T05:35:35;13.00;;;3.20;;
39176;SDS011;24904;52.208;21.192;2024-01-25T05:40:41;9.10;;;2.70;;
39176;SDS011;24904;52.208;21.192;2024-01-25T05:45:46;8.90;;;2.40;;
39176;SDS011;24904;52.208;21.192;2024-01-25T05:50:52;6.40;;;2.00;;
39176;SDS011;24904;52.208;21.192;2024-01-25T05:55:57;11.00;;;3.30;;
39176;SDS011;24904;52.208;21.192;2024-01-25T06:01:02;18.50;;;3.30;;
39176;SDS011;24904;52.208;21.192;2024-01-25T06:06:07;13.30;;;3.00;;
39176;SDS011;24904;52.208;21.192;2024-01-25T06:11:12;9.80;;;2.90;;
39176;SDS011;24904;52.208;21.192;2024-01-25T06:16:17;11.90;;;3.30;;
39176;SDS011;24904;52.208;21.192;2024-01-25T06:21:23;10.50;;;2.40;;
39176;SDS011;24904;52.208;21.192;2024-01-25T06:26:28;13.90;;;2.80;;
39176;SDS011;24904;52.208;21.192;2024-01-25T06:31:33;10.50;;;2.70;;
39176;SDS011;24904;52.208;21.192;2024-01-25T06:36:46;10.60;;;2.80;;
39176;SDS011;24904;52.208;21.192;2024-01-25T06:41:51;10.80;;;2.50;;
39176;SDS011;24904;52.208;21.192;2024-01-25T06:46:56;11.10;;;2.90;;
39176;SDS011;24904;52.208;21.192;2024-01-25T06:52:01;11.70;;;3.50;;
39176;SDS011;24904;52.208;21.192;2024-01-25T06:57:06;10.70;;;2.80;;
39176;SDS011;24904;52.208;21.192;2024-01-25T07:02:11;15.30;;;3.70;;
39176;SDS011;24904;52.208;21.192;2024-01-25T07:07:16;12.80;;;3.60;;
39176;SDS011;24904;52.208;21.192;2024-01-25T07:12:22;11.50;;;2.10;;
39176;SDS011;24904;52.208;21.192;2024-01-25T07:17:27;14.00;;;2.50;;
39176;SDS011;24904;52.208;21.192;2024-01-25T07:22:32;11.20;;;3.00;;
39176;SDS011;24904;52.208;21.192;2024-01-25T07:27:37;15.00;;;3.00;;
39176;SDS011;24904;52.208;21.192;2024-01-25T07:32:42;17.00;;;2.80;;
39176;SDS011;24904;52.208;21.192;2024-01-25T07:37:47;13.60;;;2.90;;
39176;SDS011;24904;52.208;21.192;2024-01-25T07:42:53;12.60;;;3.10;;
39176;SDS011;24904;52.208;21.192;2024-01-25T07:47:58;8.70;;;2.60;;
39176;SDS011;24904;52.208;21.192;2024-01-25T07:53:03;9.00;;;2.40;;
39176;SDS011;24904;52.208;21.192;2024-01-25T07:58:08;8.20;;;2.10;;
39176;SDS011;24904;52.208;21.192;2024-01-25T08:03:14;13.20;;;2.40;;
39176;SDS011;24904;52.208;21.192;2024-01-25T08:08:19;8.60;;;2.30;;
39176;SDS011;24904;52.208;21.192;2024-01-25T08:13:24;9.70;;;2.90;;
39176;SDS011;24904;52.208;21.192;2024-01-25T08:18:30;10.40;;;2.80;;
39176;SDS011;24904;52.208;21.192;2024-01-25T08:23:35;7.50;;;2.20;;
39176;SDS011;24904;52.208;21.192;2024-01-25T08:28:41;6.60;;;1.60;;
39176;SDS011;24904;52.208;21.192;2024-01-25T08:33:46;7.00;;;1.70;;
39176;SDS011;24904;52.208;21.192;2024-01-25T08:38:51;7.00;;;1.80;;
39176;SDS011;24904;52.208;21.192;2024-01-25T08:43:56;8.80;;;2.30;;
39176;SDS011;24904;52.208;21.192;2024-01-25T08:49:01;4.40;;;1.70;;
39176;SDS011;24904;52.208;21.192;2024-01-25T08:54:10;5.40;;;1.50;;
39176;SDS011;24904;52.208;21.192;2024-01-25T08:59:15;5.00;;;1.90;;
39176;SDS011;24904;52.208;21.192;2024-01-25T09:04:20;3.90;;;1.20;;
39176;SDS011;24904;52.208;21.192;2024-01-25T09:09:25;2.70;;;1.30;;
39176;SDS011;24904;52.208;21.192;2024-01-25T09:14:30;5.00;;;1.60;;
39176;SDS011;24904;52.208;21.192;2024-01-25T09:19:35;5.50;;;1.30;;
39176;SDS011;24904;52.208;21.192;2024-01-25T09:24:40;4.20;;;1.30;;
39176;SDS011;24904;52.208;21.192;2024-01-25T09:29:45;2.40;;;1.40;;
39176;SDS011;24904;52.208;21.192;2024-01-25T09:34:50;2.70;;;1.30;;
39176;SDS011;24904;52.208;21.192;2024-01-25T09:39:56;5.90;;;1.80;;
39176;SDS011;24904;52.208;21.192;2024-01-25T09:45:01;3.00;;;1.70;;
39176;SDS011;24904;52.208;21.192;2024-01-25T09:50:10;4.00;;;1.90;;
39176;SDS011;24904;52.208;21.192;2024-01-25T09:55:16;3.40;;;1.60;;
39176;SDS011;24904;52.208;21.192;2024-01-25T10:00:25;5.90;;;1.40;;
39176;SDS011;24904;52.208;21.192;2024-01-25T10:05:30;4.90;;;1.50;;
39176;SDS011;24904;52.208;21.192;2024-01-25T10:10:35;5.50;;;1.80;;
39176;SDS011;24904;52.208;21.192;2024-01-25T10:15:41;3.20;;;1.60;;
39176;SDS011;24904;52.208;21.192;2024-01-25T10:20:49;4.00;;;1.80;;
39176;SDS011;24904;52.208;21.192;2024-01-25T10:25:54;3.30;;;1.50;;
39176;SDS011;24904;52.208;21.192;2024-01-25T10:31:00;3.10;;;1.50;;
39176;SDS011;24904;52.208;21.192;2024-01-25T10:36:08;3.90;;;2.10;;
39176;SDS011;24904;52.208;21.192;2024-01-25T10:41:14;3.20;;;1.60;;
39176;SDS011;24904;52.208;21.192;2024-01-25T10:46:19;2.50;;;1.40;;
39176;SDS011;24904;52.208;21.192;2024-01-25T10:51:25;2.80;;;1.60;;
39176;SDS011;24904;52.208;21.192;2024-01-25T10:56:31;3.80;;;1.30;;
39176;SDS011;24904;52.208;21.192;2024-01-25T11:01:38;2.40;;;1.40;;
39176;SDS011;24904;52.208;21.192;2024-01-25T11:06:45;3.70;;;1.50;;
39176;SDS011;24904;52.208;21.192;2024-01-25T11:11:50;2.30;;;1.10;;
39176;SDS011;24904;52.208;21.192;2024-01-25T11:17:14;4.80;;;1.50;;
39176;SDS011;24904;52.208;21.192;2024-01-25T11:22:21;3.90;;;1.30;;
39176;SDS011;24904;52.208;21.192;2024-01-25T11:27:37;2.80;;;1.20;;
39176;SDS011;24904;52.208;21.192;2024-01-25T11:32:43;4.10;;;1.20;;
39176;SDS011;24904;52.208;21.192;2024-01-25T11:37:49;3.30;;;1.10;;
39176;SDS011;24904;52.208;21.192;2024-01-25T11:42:54;2.00;;;1.00;;
39176;SDS011;24904;52.208;21.192;2024-01-25T11:47:59;4.00;;;1.40;;
39176;SDS011;24904;52.208;21.192;2024-01-25T11:53:05;3.30;;;1.60;;
39176;SDS011;24904;52.208;21.192;2024-01-25T11:58:10;3.40;;;1.50;;
39176;SDS011;24904;52.208;21.192;2024-01-25T12:03:15;2.20;;;1.20;;
39176;SDS011;24904;52.208;21.192;2024-01-25T12:08:21;2.10;;;1.00;;
39176;SDS011;24904;52.208;21.192;2024-01-25T12:13:26;3.00;;;1.30;;
39176;SDS011;24904;52.208;21.192;2024-01-25T12:18:34;4.30;;;1.30;;
39176;SDS011;24904;52.208;21.192;2024-01-25T12:23:40;3.80;;;1.60;;
39176;SDS011;24904;52.208;21.192;2024-01-25T12:28:46;3.60;;;1.20;;
39176;SDS011;24904;52.208;21.192;2024-01-25T12:33:52;2.30;;;1.00;;
39176;SDS011;24904;52.208;21.192;2024-01-25T12:38:57;2.00;;;1.00;;
39176;SDS011;24904;52.208;21.192;2024-01-25T12:44:02;2.60;;;1.20;;
39176;SDS011;24904;52.208;21.192;2024-01-25T12:49:07;2.60;;;1.20;;
39176;SDS011;24904;52.208;21.192;2024-01-25T12:54:12;11.30;;;7.00;;
39176;SDS011;24904;52.208;21.192;2024-01-25T12:59:17;3.30;;;2.00;;
39176;SDS011;24904;52.208;21.192;2024-01-25T13:04:22;3.20;;;1.70;;
39176;SDS011;24904;52.208;21.192;2024-01-25T13:09:27;3.00;;;1.40;;
39176;SDS011;24904;52.208;21.192;2024-01-25T13:14:35;3.20;;;1.80;;
39176;SDS011;24904;52.208;21.192;2024-01-25T13:19:40;4.40;;;2.10;;
39176;SDS011;24904;52.208;21.192;2024-01-25T13:24:45;3.80;;;2.00;;
39176;SDS011;24904;52.208;21.192;2024-01-25T13:29:50;3.80;;;1.60;;
39176;SDS011;24904;52.208;21.192;2024-01-25T13:34:55;2.20;;;1.30;;
39176;SDS011;24904;52.208;21.192;2024-01-25T13:40:00;7.20;;;2.80;;
39176;SDS011;24904;52.208;21.192;2024-01-25T13:45:07;11.80;;;4.20;;
39176;SDS011;24904;52.208;21.192;2024-01-25T13:50:13;8.40;;;3.00;;
39176;SDS011;24904;52.208;21.192;2024-01-25T13:55:18;3.40;;;1.40;;
39176;SDS011;24904;52.208;21.192;2024-01-25T14:00:23;4.30;;;1.90;;
39176;SDS011;24904;52.208;21.192;2024-01-25T14:05:29;4.70;;;2.10;;
39176;SDS011;24904;52.208;21.192;2024-01-25T14:10:34;6.90;;;2.40;;
39176;SDS011;24904;52.208;21.192;2024-01-25T14:15:39;3.20;;;1.50;;
39176;SDS011;24904;52.208;21.192;2024-01-25T14:20:44;4.90;;;1.50;;
39176;SDS011;24904;52.208;21.192;2024-01-25T14:25:49;3.40;;;1.40;;
39176;SDS011;24904;52.208;21.192;2024-01-25T14:30:54;2.80;;;1.10;;
39176;SDS011;24904;52.208;21.192;2024-01-25T14:35:59;3.10;;;1.40;;
39176;SDS011;24904;52.208;21.192;2024-01-25T14:41:08;2.10;;;1.20;;
39176;SDS011;24904;52.208;21.192;2024-01-25T14:46:14;6.30;;;2.90;;
39176;SDS011;24904;52.208;21.192;2024-01-25T14:51:19;3.90;;;1.50;;
39176;SDS011;24904;52.208;21.192;2024-01-25T14:56:24;3.70;;;1.50;;
39176;SDS011;24904;52.208;21.192;2024-01-25T15:01:29;2.90;;;1.40;;
39176;SDS011;24904;52.208;21.192;2024-01-25T15:06:34;6.00;;;1.20;;
39176;SDS011;24904;52.208;21.192;2024-01-25T15:11:39;5.50;;;1.60;;
39176;SDS011;24904;52.208;21.192;2024-01-25T15:16:44;3.50;;;1.80;;
39176;SDS011;24904;52.208;21.192;2024-01-25T15:21:50;2.80;;;1.60;;
39176;SDS011;24904;52.208;21.192;2024-01-25T15:26:55;4.90;;;1.60;;
39176;SDS011;24904;52.208;21.192;2024-01-25T15:32:00;6.50;;;2.00;;
39176;SDS011;24904;52.208;21.192;2024-01-25T15:37:06;2.90;;;1.70;;
39176;SDS011;24904;52.208;21.192;2024-01-25T15:42:11;6.00;;;1.80;;
39176;SDS011;24904;52.208;21.192;2024-01-25T15:47:16;4.30;;;2.20;;
39176;SDS011;24904;52.208;21.192;2024-01-25T15:52:21;10.20;;;4.30;;
39176;SDS011;24904;52.208;21.192;2024-01-25T15:57:26;4.90;;;2.20;;
39176;SDS011;24904;52.208;21.192;2024-01-25T16:02:32;6.00;;;2.20;;
39176;SDS011;24904;52.208;21.192;2024-01-25T16:07:37;3.70;;;1.70;;
39176;SDS011;24904;52.208;21.192;2024-01-25T16:12:43;4.80;;;2.00;;
39176;SDS011;24904;52.208;21.192;2024-01-25T16:17:48;7.00;;;2.50;;
39176;SDS011;24904;52.208;21.192;2024-01-25T16:22:53;5.30;;;2.10;;
39176;SDS011;24904;52.208;21.192;2024-01-25T16:27:58;4.70;;;2.20;;
39176;SDS011;24904;52.208;21.192;2024-01-25T16:33:04;5.80;;;2.40;;
39176;SDS011;24904;52.208;21.192;2024-01-25T16:38:09;5.10;;;1.70;;
39176;SDS011;24904;52.208;21.192;2024-01-25T16:43:14;4.80;;;1.90;;
39176;SDS011;24904;52.208;21.192;2024-01-25T16:48:19;3.20;;;1.40;;
39176;SDS011;24904;52.208;21.192;2024-01-25T16:53:24;2.40;;;1.30;;
39176;SDS011;24904;52.208;21.192;2024-01-25T16:58:29;3.80;;;1.70;;
39176;SDS011;24904;52.208;21.192;2024-01-25T17:03:34;5.30;;;2.40;;
39176;SDS011;24904;52.208;21.192;2024-01-25T17:08:39;3.80;;;1.50;;
39176;SDS011;24904;52.208;21.192;2024-01-25T17:13:45;3.20;;;1.40;;
39176;SDS011;24904;52.208;21.192;2024-01-25T17:18:50;3.80;;;1.30;;
39176;SDS011;24904;52.208;21.192;2024-01-25T17:23:55;3.50;;;1.50;;
39176;SDS011;24904;52.208;21.192;2024-01-25T17:29:00;2.50;;;1.30;;
39176;SDS011;24904;52.208;21.192;2024-01-25T17:34:06;2.60;;;1.30;;
39176;SDS011;24904;52.208;21.192;2024-01-25T17:39:11;3.40;;;1.80;;
39176;SDS011;24904;52.208;21.192;2024-01-25T17:44:16;3.30;;;1.60;;
39176;SDS011;24904;52.208;21.192;2024-01-25T17:49:21;4.00;;;1.70;;
39176;SDS011;24904;52.208;21.192;2024-01-25T17:54:26;2.90;;;1.30;;
39176;SDS011;24904;52.208;21.192;2024-01-25T17:59:31;4.80;;;1.70;;
39176;SDS011;24904;52.208;21.192;2024-01-25T18:04:36;3.10;;;1.30;;
39176;SDS011;24904;52.208;21.192;2024-01-25T18:09:41;3.30;;;1.30;;
39176;SDS011;24904;52.208;21.192;2024-01-25T18:14:46;3.40;;;1.70;;
39176;SDS011;24904;52.208;21.192;2024-01-25T18:19:51;2.60;;;1.50;;
39176;SDS011;24904;52.208;21.192;2024-01-25T18:24:56;4.60;;;2.20;;
39176;SDS011;24904;52.208;21.192;2024-01-25T18:30:02;3.30;;;1.80;;
39176;SDS011;24904;52.208;21.192;2024-01-25T18:35:10;3.40;;;1.80;;
39176;SDS011;24904;52.208;21.192;2024-01-25T18:40:15;4.40;;;2.20;;
39176;SDS011;24904;52.208;21.192;2024-01-25T18:45:21;5.30;;;1.90;;
39176;SDS011;24904;52.208;21.192;2024-01-25T18:50:26;3.30;;;2.00;;
39176;SDS011;24904;52.208;21.192;2024-01-25T18:55:33;7.00;;;2.10;;
39176;SDS011;24904;52.208;21.192;2024-01-25T19:00:39;5.10;;;2.40;;
39176;SDS011;24904;52.208;21.192;2024-01-25T19:05:45;5.90;;;2.10;;
39176;SDS011;24904;52.208;21.192;2024-01-25T19:10:52;3.50;;;1.70;;
39176;SDS011;24904;52.208;21.192;2024-01-25T19:15:57;4.70;;;2.20;;
39176;SDS011;24904;52.208;21.192;2024-01-25T19:21:02;6.80;;;3.10;;
39176;SDS011;24904;52.208;21.192;2024-01-25T19:26:07;4.00;;;2.30;;
39176;SDS011;24904;52.208;21.192;2024-01-25T19:31:12;6.40;;;3.40;;
39176;SDS011;24904;52.208;21.192;2024-01-25T19:36:18;3.80;;;2.10;;
39176;SDS011;24904;52.208;21.192;2024-01-25T19:41:23;5.60;;;2.40;;
39176;SDS011;24904;52.208;21.192;2024-01-25T19:46:28;5.90;;;2.90;;
39176;SDS011;24904;52.208;21.192;2024-01-25T19:51:33;5.30;;;2.30;;
39176;SDS011;24904;52.208;21.192;2024-01-25T19:56:39;6.30;;;2.30;;
39176;SDS011;24904;52.208;21.192;2024-01-25T20:01:44;6.60;;;2.70;;
39176;SDS011;24904;52.208;21.192;2024-01-25T20:06:50;6.00;;;2.90;;
39176;SDS011;24904;52.208;21.192;2024-01-25T20:11:56;6.10;;;2.40;;
39176;SDS011;24904;52.208;21.192;2024-01-25T20:17:01;5.80;;;2.70;;
39176;SDS011;24904;52.208;21.192;2024-01-25T20:22:06;6.10;;;2.70;;
39176;SDS011;24904;52.208;21.192;2024-01-25T20:27:11;4.70;;;2.50;;
39176;SDS011;24904;52.208;21.192;2024-01-25T20:32:16;4.00;;;2.70;;
39176;SDS011;24904;52.208;21.192;2024-01-25T20:37:23;5.60;;;2.90;;
39176;SDS011;24904;52.208;21.192;2024-01-25T20:42:28;6.90;;;3.20;;
39176;SDS011;24904;52.208;21.192;2024-01-25T20:47:33;5.70;;;2.60;;
39176;SDS011;24904;52.208;21.192;2024-01-25T20:52:38;5.60;;;3.30;;
39176;SDS011;24904;52.208;21.192;2024-01-25T20:57:43;4.80;;;2.80;;
39176;SDS011;24904;52.208;21.192;2024-01-25T21:02:49;4.60;;;3.00;;
39176;SDS011;24904;52.208;21.192;2024-01-25T21:07:55;5.30;;;3.10;;
39176;SDS011;24904;52.208;21.192;2024-01-25T21:13:01;3.40;;;2.40;;
39176;SDS011;24904;52.208;21.192;2024-01-25T21:18:07;6.00;;;3.00;;
39176;SDS011;24904;52.208;21.192;2024-01-25T21:23:12;6.80;;;3.10;;
39176;SDS011;24904;52.208;21.192;2024-01-25T21:28:17;5.60;;;2.90;;
39176;SDS011;24904;52.208;21.192;2024-01-25T21:33:22;4.10;;;2.50;;
39176;SDS011;24904;52.208;21.192;2024-01-25T21:38:27;6.40;;;2.60;;
39176;SDS011;24904;52.208;21.192;2024-01-25T21:43:34;3.90;;;2.60;;
39176;SDS011;24904;52.208;21.192;2024-01-25T21:48:39;4.00;;;2.60;;
39176;SDS011;24904;52.208;21.192;2024-01-25T21:53:44;5.40;;;2.90;;
39176;SDS011;24904;52.208;21.192;2024-01-25T21:58:49;4.10;;;2.50;;
39176;SDS011;24904;52.208;21.192;2024-01-25T22:03:54;4.10;;;2.20;;
39176;SDS011;24904;52.208;21.192;2024-01-25T22:08:59;5.30;;;2.50;;
39176;SDS011;24904;52.208;21.192;2024-01-25T22:14:05;5.10;;;2.40;;
39176;SDS011;24904;52.208;21.192;2024-01-25T22:19:10;6.40;;;3.20;;
39176;SDS011;24904;52.208;21.192;2024-01-25T22:24:15;5.80;;;3.50;;
39176;SDS011;24904;52.208;21.192;2024-01-25T22:29:20;7.20;;;3.50;;
39176;SDS011;24904;52.208;21.192;2024-01-25T22:34:25;5.90;;;3.20;;
39176;SDS011;24904;52.208;21.192;2024-01-25T22:39:30;7.30;;;3.20;;
39176;SDS011;24904;52.208;21.192;2024-01-25T22:44:36;4.70;;;2.90;;
39176;SDS011;24904;52.208;21.192;2024-01-25T22:49:41;5.60;;;3.00;;
39176;SDS011;24904;52.208;21.192;2024-01-25T22:54:46;4.50;;;2.30;;
39176;SDS011;24904;52.208;21.192;2024-01-25T22:59:51;4.30;;;2.70;;
39176;SDS011;24904;52.208;21.192;2024-01-25T23:04:56;6.20;;;3.00;;
39176;SDS011;24904;52.208;21.192;2024-01-25T23:10:01;4.40;;;2.30;;
39176;SDS011;24904;52.208;21.192;2024-01-25T23:15:07;4.70;;;2.80;;
39176;SDS011;24904;52.208;21.192;2024-01-25T23:20:12;5.70;;;2.70;;
39176;SDS011;24904;52.208;21.192;2024-01-25T23:25:18;4.60;;;2.70;;
39176;SDS011;24904;52.208;21.192;2024-01-25T23:30:23;3.60;;;2.20;;
39176;SDS011;24904;52.208;21.192;2024-01-25T23:35:28;4.80;;;2.50;;
39176;SDS011;24904;52.208;21.192;2024-01-25T23:40:33;3.70;;;2.50;;
39176;SDS011;24904;52.208;21.192;2024-01-25T23:45:39;4.30;;;2.10;;
39176;SDS011;24904;52.208;21.192;2024-01-25T23:50:44;6.80;;;2.30;;
39176;SDS011;24904;52.208;21.192;2024-01-25T23:55:49;3.70;;;1.90;;
